TRAVEL WEATHER INFO - USA

NOAA Site Locator - Search for Station Information

CITY Forecast Link METAR Identifier Last Updated Temperature Dew Point Humidity Pressure Wind Direction Wind Speed Wind Gust Weather Rain/hr Google Maps
Albuqueque WEATHER KABQ 07/19/2018 09:52 73.4 53.6 50 30.21 SE 3 3 Scattered Clouds --- Albuquerque, NM Map
Anchorage WEATHER PAED 07/19/2018 09:56 50.0 44.6 82 30.24 NNE 3 3 Few Clouds --- Anchorage, AK Map
Atlanta WEATHER KATL 07/19/2018 09:52 82.4 73.4 74 30.00 ENE 6 6 Few Clouds --- ATLANTA, GA Map
Birmingham WEATHER KBHM 07/19/2018 09:53 80.6 66.2 62 29.99 ENE 4 4 Broken Clouds --- Birmingham, AL Map
Boston WEATHER KBOS 07/19/2018 09:54 75.2 46.4 36 30.09 NE 6 6 Clear --- BOSTON, MA Map
Cheyenne WEATHER KCYS 07/19/2018 09:53 69.8 42.8 38 30.18 W 8 8 Clear --- Cheyenne, WY Map
Chicago O'Hare WEATHER KORD 07/19/2018 09:51 75.2 57.2 54 30.00 ESE 9 9 Broken Clouds --- CHICAGO, IL Map
Colorado Springs WEATHER KCOS 07/19/2018 09:54 77.0 46.4 34 30.22 NNW 16 25 Broken Clouds --- Colo. Springs, CO Map
Dallas WEATHER KADS 07/19/2018 09:47 87.8 71.6 59 29.92 S 13 20 Clear --- Dallas, TX Map
Denver WEATHER KDEN 07/19/2018 09:53 73.4 51.8 47 30.16 SW 10 10 Broken Clouds --- DENVER, CO Map
Detroit WEATHER KDET 07/19/2018 09:53 75.2 59.0 57 30.10 S 9 9 Clear --- Detroit, MI Map
Dover WEATHER KDOV 07/19/2018 09:56 78.8 51.8 39 30.09 NNE 4 4 Clear --- DOVER, DE Map
Fort Lauderdale WEATHER KFXE 07/19/2018 09:53 87.8 75.2 66 30.04 N 4 4 Scattered Clouds --- Fort Lauderdale, FL Map
Honolulu WEATHER PHNL 07/19/2018 09:53 78.8 68.0 70 30.00 NE 10 10 Broken Clouds --- Honolulu, HI Map
JFK Airport WEATHER KJFK 07/19/2018 09:51 75.2 53.6 47 30.11 NE 9 9 Clear --- JFK Airport, NYC Map
Key West WEATHER KEYW 07/19/2018 09:53 87.8 73.4 63 30.04 SSW 6 6 Few Clouds --- Key West, FL Map
Los Angeles WEATHER KLAX 07/19/2018 09:53 71.6 66.2 83 29.97 NNW 3 3 Few Clouds --- Los Angeles, CA Map
Louisville WEATHER KSDF 07/19/2018 09:56 77.0 62.6 61 30.02 SE 5 5 Broken Clouds --- Louisville, KY Map
Minneapolis WEATHER KMSP 07/19/2018 09:53 73.4 66.2 78 29.84 SSE 13 24 Overcast --- Minneapolis, MN Map
Morgantown WEATHER KMGW 07/19/2018 09:53 71.6 57.2 61 30.13 --- 0 0 Clear --- Morgantown, WV Map
New Orleans WEATHER KNEW 07/19/2018 09:53 82.4 78.8 89 29.97 WSW 9 9 Scattered Clouds --- New Orleans, LA Map
New York City WEATHER KNYC 07/19/2018 09:51 73.4 48.2 41 30.13 N 4 4 Clear --- New York, NY Map
Omaha WEATHER KOMA 07/19/2018 09:52 78.8 71.6 79 29.80 S 6 6 Scattered Clouds --- Omaha, NE Map
Philadelphia WEATHER KPHL 07/19/2018 09:54 73.4 50.0 44 30.11 NNE 8 8 Clear --- Philadelphia, PA Map
Pittsburgh WEATHER KPIT 07/19/2018 09:51 69.8 57.2 64 30.12 --- 0 0 Scattered Clouds --- Pittsburgh, PA Map
Seattle WEATHER KSEA 07/19/2018 09:53 57.2 50.0 77 30.17 S 6 6 Overcast --- Seattle, WA Map
San Francisco WEATHER KSFO 07/19/2018 09:56 60.8 53.6 77 29.94 S 3 3 Broken Clouds --- San Francisco, CA Map
Washington DC WEATHER KDCA 07/19/2018 09:52 78.8 55.4 45 30.11 NE 8 8 Few Clouds --- Washington, DC Map